Time;durP1;ratioP1;P1;durP2;ratioP2;P2;SDS_P1;SDS_P2;PMS_P1;PMS_P2;Temp;Humidity;BMP_temperature;BMP_pressure;BME280_temperature;BME280_humidity;BME280_pressure;Samples;Min_cycle;Max_cycle;Signal;HPM_P1;HPM_P2
2022/04/01 00:00:47;;;;;;;;;;;3.10;99.90;;;1.28;100.00;99683.03;2568928;30;137041;-40
2022/04/01 00:03:15;;;;;;;;;;;3.10;99.90;;;1.34;100.00;99692.25;2568209;30;138289;-40
2022/04/01 00:05:42;;;;;;;;;;;3.10;99.90;;;1.21;100.00;99693.66;2565404;30;137409;-40
2022/04/01 00:08:11;;;;;;;;;;;3.00;99.90;;;1.23;100.00;99680.06;2568593;30;138210;-39
2022/04/01 00:10:39;;;;;;;;;;;3.00;99.90;;;1.29;100.00;99693.59;2567917;30;137856;-40
2022/04/01 00:13:07;;;;;;;;;;;3.00;99.90;;;1.22;100.00;99703.41;2567278;30;137423;-39
2022/04/01 00:15:35;;;;;;;;;;;3.00;99.90;;;1.20;100.00;99702.75;2568361;30;136862;-39
2022/04/01 00:18:03;;;;;;;;;;;3.00;99.90;;;1.19;100.00;99701.06;2567590;30;137150;-40
2022/04/01 00:20:31;;;;;;;;;;;3.00;99.90;;;1.19;100.00;99705.59;2567458;30;136825;-39
2022/04/01 00:23:06;;;;;;;;;;;3.00;99.90;;;1.20;100.00;99708.13;2567799;30;138065;-39
2022/04/01 00:25:34;;;;;;;;;;;3.00;99.90;;;1.16;100.00;99706.81;2567079;30;136693;-40
2022/04/01 00:28:02;;;;;;;;;;;3.00;99.90;;;1.17;100.00;99718.38;2568512;30;138138;-40
2022/04/01 00:30:29;;;;;;;;;;;2.90;99.90;;;1.09;100.00;99708.53;2568768;30;137261;-39
2022/04/01 00:32:56;;;;;;;;;;;2.90;99.90;;;1.06;100.00;99701.66;2566984;30;138216;-39
2022/04/01 00:35:24;;;;;;;;;;;2.80;99.90;;;0.99;100.00;99712.28;2567894;30;137109;-39
2022/04/01 00:37:52;;;;;;;;;;;2.80;99.90;;;0.97;100.00;99708.94;2567464;30;138584;-40
2022/04/01 00:40:21;;;;;;;;;;;2.80;99.90;;;1.06;100.00;99717.78;2568471;30;137133;-39
2022/04/01 00:42:49;;;;;;;;;;;2.80;99.90;;;1.00;100.00;99729.25;2567574;30;138104;-39
2022/04/01 00:45:20;;;;;;;;;;;2.80;99.90;;;1.02;100.00;99721.00;2569308;30;136814;-39
2022/04/01 00:47:47;;;;;;;;;;;2.80;99.90;;;1.00;100.00;99723.88;2566944;30;139905;-39
2022/04/01 00:50:15;;;;;;;;;;;2.80;99.90;;;1.03;100.00;99728.03;2568050;30;137253;-40
2022/04/01 00:52:44;;;;;;;;;;;2.80;99.90;;;0.98;100.00;99717.84;2565138;30;137093;-40
2022/04/01 00:55:11;;;;;;;;;;;2.70;99.90;;;0.95;100.00;99727.06;2567874;30;137023;-40
2022/04/01 00:57:39;;;;;;;;;;;2.70;99.90;;;1.00;100.00;99731.94;2569606;30;138323;-40
2022/04/01 01:00:07;;;;;;;;;;;2.80;99.90;;;0.97;100.00;99729.59;2566321;30;137382;-40
2022/04/01 01:02:39;;;;;;;;;;;2.70;99.90;;;0.98;100.00;99725.91;2567875;30;139107;-40
2022/04/01 01:05:07;;;;;;;;;;;2.80;99.90;;;0.94;100.00;99724.59;2568166;30;137588;-39
2022/04/01 01:07:36;;;;;;;;;;;2.70;99.90;;;0.92;100.00;99732.81;2567812;30;138240;-39
2022/04/01 01:10:05;;;;;;;;;;;2.70;99.90;;;0.91;100.00;99736.50;2567814;30;137371;-39
2022/04/01 01:12:33;;;;;;;;;;;2.70;99.90;;;0.86;100.00;99730.84;2568548;30;138218;-40
2022/04/01 01:15:07;;;;;;;;;;;2.70;99.90;;;0.86;100.00;99733.50;2566642;30;136744;-40
2022/04/01 01:17:37;;;;;;;;;;;2.60;99.90;;;0.92;100.00;99743.53;2568488;30;139192;-39
2022/04/01 01:20:12;;;;;;;;;;;2.70;99.90;;;0.92;100.00;99738.19;2567438;30;138392;-39
2022/04/01 01:22:41;;;;;;;;;;;2.70;99.90;;;0.87;100.00;99735.19;2568457;30;138240;-41
2022/04/01 01:26:47;;;;;;;;;;;2.70;99.90;;;0.90;100.00;99745.56;2570074;30;154906;-41
2022/04/01 01:29:19;;;;;;;;;;;2.70;99.90;;;0.88;100.00;99742.22;2567122;30;140286;-41
2022/04/01 01:31:46;;;;;;;;;;;2.70;99.90;;;0.89;100.00;99733.16;2569456;30;137600;-41
2022/04/01 01:34:13;;;;;;;;;;;2.70;99.90;;;0.89;100.00;99738.53;2567177;30;140055;-41
2022/04/01 01:36:41;;;;;;;;;;;2.70;99.90;;;0.88;100.00;99741.38;2569343;30;137140;-41
2022/04/01 01:39:08;;;;;;;;;;;2.70;99.90;;;0.87;100.00;99729.81;2569524;30;139276;-41
2022/04/01 01:41:36;;;;;;;;;;;2.60;99.90;;;0.87;100.00;99740.56;2567795;30;138908;-41
2022/04/01 01:44:04;;;;;;;;;;;2.60;99.90;;;0.78;100.00;99741.59;2568412;30;140334;-42
2022/04/01 01:46:31;;;;;;;;;;;2.60;99.90;;;0.86;100.00;99750.44;2569117;30;138799;-41
2022/04/01 01:48:59;;;;;;;;;;;2.60;99.90;;;0.87;100.00;99754.00;2568965;30;138427;-41
2022/04/01 01:57:00;;;;;;;;;;;2.60;99.90;;;0.82;100.00;99748.31;2572041;30;137922;-41
2022/04/01 01:59:27;;;;;;;;;;;2.60;99.90;;;0.74;100.00;99754.56;2571332;30;137164;-41
2022/04/01 02:01:55;;;;;;;;;;;2.50;99.90;;;0.75;100.00;99763.44;2569620;30;137391;-41
2022/04/01 02:04:23;;;;;;;;;;;2.50;99.90;;;0.68;100.00;99761.44;2570292;30;138923;-41
2022/04/01 02:06:51;;;;;;;;;;;2.50;99.90;;;0.73;100.00;99757.41;2567742;30;138868;-41
2022/04/01 02:09:18;;;;;;;;;;;2.50;99.90;;;0.73;100.00;99762.75;2570150;30;138803;-43
2022/04/01 02:11:46;;;;;;;;;;;2.50;99.90;;;0.67;100.00;99756.28;2567471;30;138692;-41
2022/04/01 02:14:14;;;;;;;;;;;2.50;99.90;;;0.57;100.00;99754.59;2568593;30;139822;-41
2022/04/01 02:16:45;;;;;;;;;;;2.40;99.90;;;0.57;100.00;99768.03;2571763;30;140303;-41
2022/04/01 02:19:13;;;;;;;;;;;2.40;99.90;;;0.49;100.00;99765.38;2569666;30;138262;-41
2022/04/01 02:21:40;;;;;;;;;;;2.30;99.90;;;0.53;100.00;99755.09;2566864;30;138647;-41
2022/04/01 02:24:10;;;;;;;;;;;2.30;99.90;;;0.47;100.00;99764.72;2568978;30;140720;-41
2022/04/01 02:26:37;;;;;;;;;;;2.30;99.90;;;0.46;100.00;99765.72;2569300;30;138201;-42
2022/04/01 02:29:08;;;;;;;;;;;2.20;99.90;;;0.45;100.00;99768.56;2569104;30;139624;-41
2022/04/01 02:31:53;;;;;;;;;;;2.20;99.90;;;0.39;100.00;99770.09;2570352;30;137761;-43
2022/04/01 02:34:42;;;;;;;;;;;2.20;99.90;;;0.41;100.00;99768.09;2568868;30;138820;-41
2022/04/01 02:37:10;;;;;;;;;;;2.20;99.90;;;0.41;100.00;99776.16;2568811;30;138381;-41
2022/04/01 02:39:38;;;;;;;;;;;2.20;99.90;;;0.42;100.00;99781.31;2566964;30;140301;-41
2022/04/01 02:42:06;;;;;;;;;;;2.20;99.90;;;0.42;100.00;99780.50;2569478;30;138181;-41
2022/04/01 02:44:34;;;;;;;;;;;2.20;99.90;;;0.29;100.00;99781.03;2570104;30;138563;-41
2022/04/01 02:47:01;;;;;;;;;;;2.10;99.90;;;0.38;100.00;99785.38;2572555;30;137277;-41
2022/04/01 02:49:29;;;;;;;;;;;2.10;99.90;;;0.37;100.00;99786.38;2570882;30;139936;-41
2022/04/01 02:51:59;;;;;;;;;;;2.10;99.90;;;0.37;100.00;99790.88;2569262;30;138133;-41
2022/04/01 02:54:31;;;;;;;;;;;2.20;99.90;;;0.39;100.00;99804.97;2569751;30;140725;-41
2022/04/01 02:56:59;;;;;;;;;;;2.10;99.90;;;0.37;100.00;99798.94;2569976;30;138448;-41
2022/04/01 02:59:26;;;;;;;;;;;2.20;99.90;;;0.35;100.00;99793.75;2571370;30;139666;-41
2022/04/01 03:01:55;;;;;;;;;;;2.20;99.90;;;0.38;100.00;99809.50;2570576;30;137069;-42
2022/04/01 03:04:25;;;;;;;;;;;2.20;99.90;;;0.34;100.00;99802.81;2570916;30;141167;-42
2022/04/01 03:06:55;;;;;;;;;;;2.10;99.90;;;0.37;100.00;99804.31;2570426;30;138174;-43
2022/04/01 03:09:23;;;;;;;;;;;2.20;99.90;;;0.34;100.00;99812.69;2565312;30;140927;-41
2022/04/01 03:11:56;;;;;;;;;;;2.10;99.90;;;0.38;100.00;99811.34;2570508;30;138700;-41
2022/04/01 03:14:56;;;;;;;;;;;2.20;99.90;;;0.37;100.00;99821.25;2568601;30;137827;-41
2022/04/01 03:18:02;;;;;;;;;;;2.10;99.90;;;0.37;100.00;99818.56;2569585;30;136894;-41
2022/04/01 03:20:40;;;;;;;;;;;2.20;99.90;;;0.38;100.00;99822.09;2570486;30;139187;-41
2022/04/01 03:23:07;;;;;;;;;;;2.20;99.90;;;0.35;100.00;99825.97;2568592;30;138757;-41
2022/04/01 03:25:41;;;;;;;;;;;2.20;99.90;;;0.39;100.00;99829.97;2569258;30;140623;-41
2022/04/01 03:28:27;;;;;;;;;;;2.20;99.90;;;0.36;100.00;99829.47;2573401;30;136929;-41
2022/04/01 03:31:06;;;;;;;;;;;2.10;99.90;;;0.22;100.00;99839.03;2568533;30;141203;-41
2022/04/01 03:33:37;;;;;;;;;;;2.00;99.90;;;0.24;100.00;99835.19;2569510;30;137680;-41
2022/04/01 03:36:05;;;;;;;;;;;2.00;99.90;;;0.18;100.00;99837.72;2569063;30;140313;-41
2022/04/01 03:38:38;;;;;;;;;;;2.00;99.90;;;0.22;100.00;99844.41;2570110;30;139760;-41
2022/04/01 03:41:11;;;;;;;;;;;2.00;99.90;;;0.19;100.00;99839.38;2569334;30;139638;-41
2022/04/01 03:43:40;;;;;;;;;;;2.00;99.90;;;0.13;100.00;99851.63;2570207;30;137133;-41
2022/04/01 03:46:14;;;;;;;;;;;2.00;99.90;;;0.16;100.00;99855.81;2568789;30;139484;-44
2022/04/01 03:48:52;;;;;;;;;;;1.90;99.90;;;0.11;100.00;99856.31;2569312;30;138558;-41
2022/04/01 03:51:28;;;;;;;;;;;1.90;99.90;;;0.12;100.00;99866.91;2569843;30;139894;-41
2022/04/01 03:54:01;;;;;;;;;;;1.90;99.90;;;0.07;100.00;99857.66;2568424;30;137628;-41
2022/04/01 03:57:02;;;;;;;;;;;1.90;99.90;;;0.05;100.00;99860.53;2568314;30;137010;-41
2022/04/01 03:59:44;;;;;;;;;;;1.90;99.90;;;0.06;100.00;99862.19;2569383;30;136858;-41
2022/04/01 04:02:35;;;;;;;;;;;1.90;99.90;;;0.11;100.00;99873.25;2570084;30;137153;-41
2022/04/01 04:05:06;;;;;;;;;;;1.90;99.90;;;0.04;100.00;99868.72;2569735;30;139191;-41
2022/04/01 04:07:34;;;;;;;;;;;1.90;99.90;;;0.05;100.00;99884.66;2571713;30;138962;-43
2022/04/01 04:10:07;;;;;;;;;;;1.80;99.90;;;0.07;100.00;99879.13;2568908;30;139373;-41
2022/04/01 04:12:56;;;;;;;;;;;1.80;99.90;;;0.06;100.00;99883.66;2568507;30;139664;-42
2022/04/01 04:15:28;;;;;;;;;;;1.90;99.90;;;0.09;100.00;99888.69;2569405;30;136965;-43
2022/04/01 04:18:02;;;;;;;;;;;1.80;99.90;;;0.12;100.00;99888.34;2567471;30;140543;-41
2022/04/01 04:20:38;;;;;;;;;;;1.90;99.90;;;0.10;100.00;99894.88;2570365;30;139408;-43
2022/04/01 04:23:31;;;;;;;;;;;1.90;99.90;;;0.04;100.00;99891.03;2569416;30;139591;-41
2022/04/01 04:26:15;;;;;;;;;;;1.90;99.90;;;0.03;100.00;99893.88;2568603;30;138411;-41
2022/04/01 04:28:50;;;;;;;;;;;1.80;99.90;;;0.03;100.00;99899.25;2571058;30;139065;-41
2022/04/01 04:31:38;;;;;;;;;;;1.80;99.90;;;0.03;100.00;99894.72;2569237;30;138490;-41
2022/04/01 04:34:16;;;;;;;;;;;1.80;99.90;;;0.02;100.00;99902.94;2568650;30;138602;-41
2022/04/01 04:36:49;;;;;;;;;;;1.80;99.90;;;-0.02;100.00;99913.13;2566178;30;138998;-41
2022/04/01 04:39:31;;;;;;;;;;;1.80;99.90;;;-0.01;100.00;99912.13;2568123;30;139912;-41
2022/04/01 04:42:04;;;;;;;;;;;1.80;99.90;;;-0.05;100.00;99910.78;2568822;30;138670;-42
2022/04/01 04:44:32;;;;;;;;;;;1.80;99.90;;;-0.10;100.00;99899.72;2568534;30;140197;-43
2022/04/01 04:47:01;;;;;;;;;;;1.70;99.90;;;-0.04;100.00;99921.38;2569241;30;137999;-41
2022/04/01 04:49:31;;;;;;;;;;;1.80;99.90;;;-0.01;100.00;99925.53;2567722;30;141040;-41
2022/04/01 04:51:59;;;;;;;;;;;1.80;99.90;;;0.06;100.00;99928.41;2569893;30;139436;-41
2022/04/01 04:54:28;;;;;;;;;;;1.90;99.90;;;-0.03;100.00;99938.28;2569860;30;138378;-41
2022/04/01 04:57:20;;;;;;;;;;;1.80;99.90;;;0.01;100.00;99939.66;2569761;30;137083;-42
2022/04/01 04:59:49;;;;;;;;;;;1.80;99.90;;;-0.05;100.00;99929.56;2568683;30;139879;-41
2022/04/01 05:02:58;;;;;;;;;;;1.80;99.90;;;0.00;100.00;99935.28;2568593;30;139473;-41
2022/04/01 05:05:56;;;;;;;;;;;1.80;99.90;;;-0.02;100.00;99940.81;2569996;30;139768;-41
2022/04/01 05:08:51;;;;;;;;;;;1.80;99.90;;;0.01;100.00;99944.16;2568776;30;136897;-43
2022/04/01 05:12:04;;;;;;;;;;;1.80;99.90;;;0.01;100.00;99957.56;2568699;30;137795;-42
2022/04/01 05:14:58;;;;;;;;;;;1.80;99.90;;;0.04;100.00;99959.94;2567872;30;136973;-41
2022/04/01 05:17:35;;;;;;;;;;;1.80;99.90;;;0.00;100.00;99962.13;2570210;30;138701;-41
2022/04/01 05:20:17;;;;;;;;;;;1.80;99.90;;;-0.04;100.00;99966.09;2569580;30;136746;-42
2022/04/01 05:23:09;;;;;;;;;;;1.70;99.90;;;-0.06;100.00;99981.53;2566600;30;138924;-41
2022/04/01 05:25:45;;;;;;;;;;;1.80;99.90;;;0.01;100.00;99979.03;2570505;30;136975;-41
2022/04/01 05:28:40;;;;;;;;;;;1.80;99.90;;;-0.03;100.00;99973.16;2569619;30;137642;-40
2022/04/01 05:31:24;;;;;;;;;;;1.80;99.90;;;-0.03;100.00;99982.06;2567881;30;138507;-41
2022/04/01 05:34:17;;;;;;;;;;;1.80;99.90;;;-0.03;100.00;99983.88;2568286;30;140548;-41
2022/04/01 05:36:48;;;;;;;;;;;1.80;99.90;;;-0.03;100.00;99979.38;2570734;30;138227;-43
2022/04/01 05:39:17;;;;;;;;;;;1.80;99.90;;;-0.05;100.00;99992.09;2568277;30;140116;-41
2022/04/01 05:41:50;;;;;;;;;;;1.80;99.90;;;-0.01;100.00;99992.59;2566677;30;138294;-41
2022/04/01 05:44:19;;;;;;;;;;;1.80;99.90;;;-0.06;100.00;99997.63;2569773;30;140423;-41
2022/04/01 05:46:48;;;;;;;;;;;1.70;99.90;;;-0.03;100.00;100000.81;2569689;30;139304;-42
2022/04/01 05:49:19;;;;;;;;;;;1.70;99.90;;;-0.02;100.00;99998.97;2570164;30;137860;-41
2022/04/01 05:51:47;;;;;;;;;;;1.80;99.90;;;-0.05;100.00;100004.66;2571278;30;137378;-41
2022/04/01 05:54:19;;;;;;;;;;;1.70;99.90;;;-0.01;100.00;100017.59;2570258;30;139158;-41
2022/04/01 05:56:47;;;;;;;;;;;1.80;99.90;;;-0.07;100.00;100017.41;2569627;30;138541;-41
2022/04/01 05:59:21;;;;;;;;;;;1.80;99.90;;;-0.04;100.00;100015.25;2570625;30;140186;-41
2022/04/01 06:02:41;;;;;;;;;;;1.80;99.90;;;-0.03;100.00;100021.44;2569885;30;138870;-41
2022/04/01 06:05:18;;;;;;;;;;;1.80;99.90;;;-0.12;100.00;100025.94;2570087;30;140332;-44
2022/04/01 06:07:51;;;;;;;;;;;1.80;99.90;;;-0.11;100.00;100029.44;2570027;30;138991;-41
2022/04/01 06:10:57;;;;;;;;;;;1.70;99.90;;;-0.10;100.00;100034.66;2568270;30;138256;-41
2022/04/01 06:14:29;;;;;;;;;;;1.70;99.90;;;-0.06;100.00;100035.16;2565758;30;137379;-41
2022/04/01 06:17:48;;;;;;;;;;;1.70;99.90;;;-0.05;100.00;100036.84;2571064;30;136971;-43
2022/04/01 06:20:20;;;;;;;;;;;1.70;99.90;;;-0.07;100.00;100041.53;2570525;30;138552;-42
2022/04/01 06:23:14;;;;;;;;;;;1.70;99.90;;;-0.04;100.00;100038.53;2569160;30;139961;-42
2022/04/01 06:25:54;;;;;;;;;;;1.70;99.90;;;0.01;100.00;100041.59;2572432;30;137083;-41
2022/04/01 06:28:39;;;;;;;;;;;1.80;99.90;;;-0.05;100.00;100053.78;2569607;30;140914;-41
2022/04/01 06:31:11;;;;;;;;;;;1.80;99.90;;;-0.03;100.00;100053.59;2567612;30;138225;-41
2022/04/01 06:34:12;;;;;;;;;;;1.80;99.90;;;-0.07;100.00;100066.53;2569918;30;140535;-41
2022/04/01 06:37:03;;;;;;;;;;;1.70;99.90;;;-0.04;100.00;100073.38;2569217;30;137065;-41
2022/04/01 06:39:50;;;;;;;;;;;1.70;99.90;;;-0.01;100.00;100076.59;2567659;30;139711;-41
2022/04/01 06:42:31;;;;;;;;;;;1.80;99.90;;;0.01;100.00;100083.63;2567160;30;138516;-42
2022/04/01 06:45:17;;;;;;;;;;;1.80;99.90;;;-0.06;100.00;100088.81;2572011;30;137283;-43
2022/04/01 06:48:04;;;;;;;;;;;1.80;99.90;;;-0.10;100.00;100100.84;2569758;30;136624;-43
2022/04/01 06:50:49;;;;;;;;;;;1.70;99.90;;;-0.06;100.00;100100.38;2569189;30;138276;-41
2022/04/01 06:53:43;;;;;;;;;;;1.70;99.90;;;-0.04;100.00;100113.63;2569257;30;136796;-41
2022/04/01 06:56:49;;;;;;;;;;;1.80;99.90;;;-0.07;100.00;100108.56;2566977;30;137683;-41
2022/04/01 06:59:18;;;;;;;;;;;1.70;99.90;;;-0.05;100.00;100112.78;2569297;30;138409;-42
2022/04/01 07:01:46;;;;;;;;;;;1.70;99.90;;;-0.07;100.00;100104.06;2569661;30;138453;-41
2022/04/01 07:04:14;;;;;;;;;;;1.70;99.90;;;-0.06;100.00;100119.16;2569330;30;136911;-41
2022/04/01 07:06:41;;;;;;;;;;;1.70;99.90;;;0.00;100.00;100120.38;2570117;30;138467;-41
2022/04/01 07:09:09;;;;;;;;;;;1.80;99.90;;;-0.06;99.69;100127.22;2566833;30;137322;-40
2022/04/01 07:11:36;;;;;;;;;;;1.70;99.90;;;-0.09;98.87;100126.69;2569562;30;138102;-42
2022/04/01 07:14:04;;;;;;;;;;;1.70;99.90;;;-0.10;99.54;100123.16;2571348;30;137969;-41
2022/04/01 07:16:31;;;;;;;;;;;1.70;99.90;;;-0.09;100.00;100124.00;2570023;30;138325;-41
2022/04/01 07:18:59;;;;;;;;;;;1.70;99.90;;;-0.12;100.00;100125.16;2569876;30;137186;-42
2022/04/01 07:21:27;;;;;;;;;;;1.70;99.90;;;-0.09;100.00;100132.88;2572657;30;138448;-41
2022/04/01 07:23:54;;;;;;;;;;;1.70;99.90;;;-0.15;100.00;100131.69;2569557;30;136702;-41
2022/04/01 07:26:23;;;;;;;;;;;1.70;99.90;;;-0.09;100.00;100142.75;2571907;30;138635;-40
2022/04/01 07:28:50;;;;;;;;;;;1.70;99.90;;;-0.08;100.00;100139.94;2567717;30;136948;-40
2022/04/01 07:34:40;;;;;;;;;;;1.70;99.90;;;-0.06;99.21;100153.16;2567808;30;136655;-40
2022/04/01 07:37:09;;;;;;;;;;;1.70;99.90;;;-0.04;99.57;100151.16;2568554;30;137867;-40
2022/04/01 07:39:37;;;;;;;;;;;1.70;99.90;;;-0.21;100.00;100140.38;2568634;30;137839;-40
2022/04/01 07:42:05;;;;;;;;;;;1.70;99.90;;;-0.07;98.79;100162.22;2566745;30;137406;-40
2022/04/01 07:44:33;;;;;;;;;;;1.70;99.90;;;-0.16;98.55;100145.22;2565822;30;137629;-40
2022/04/01 07:47:01;;;;;;;;;;;1.70;99.90;;;-0.09;99.08;100165.06;2568114;30;137762;-40
2022/04/01 07:49:30;;;;;;;;;;;1.70;99.90;;;-0.07;100.00;100175.63;2568670;30;136914;-39
2022/04/01 07:52:18;;;;;;;;;;;1.70;99.90;;;-0.06;99.29;100171.94;2565952;30;137347;-39
2022/04/01 07:54:48;;;;;;;;;;;1.70;99.90;;;-0.02;98.10;100170.63;2569176;30;138311;-39
2022/04/01 07:57:17;;;;;;;;;;;1.80;99.90;;;0.03;100.00;100179.06;2568788;30;138163;-40
2022/04/01 07:59:46;;;;;;;;;;;1.80;99.90;;;-0.02;99.08;100187.56;2566863;30;137134;-40
2022/04/01 08:02:14;;;;;;;;;;;1.80;99.90;;;-0.07;97.96;100186.34;2568716;30;137964;-40
2022/04/01 08:04:42;;;;;;;;;;;1.70;99.90;;;-0.05;97.98;100192.41;2567908;30;137151;-40
2022/04/01 08:07:14;;;;;;;;;;;1.80;99.90;;;-0.14;97.56;100186.13;2569365;30;137271;-40
2022/04/01 08:09:42;;;;;;;;;;;1.70;99.90;;;-0.06;97.89;100199.63;2568207;30;137941;-40
2022/04/01 08:12:09;;;;;;;;;;;1.70;99.90;;;-0.03;98.66;100196.63;2568569;30;138095;-40
2022/04/01 08:14:37;;;;;;;;;;;1.80;99.90;;;0.02;99.18;100211.38;2569069;30;136981;-40
2022/04/01 08:17:06;;;;;;;;;;;1.80;99.90;;;0.03;99.60;100203.19;2568264;30;138238;-40
2022/04/01 08:19:34;;;;;;;;;;;1.90;99.90;;;0.05;97.37;100214.59;2568862;30;137817;-40
2022/04/01 08:22:01;;;;;;;;;;;1.80;99.90;;;-0.01;97.15;100215.22;2568518;30;138273;-40
2022/04/01 08:24:29;;;;;;;;;;;1.80;99.90;;;0.01;97.36;100234.72;2568173;30;136815;-40
2022/04/01 08:26:59;;;;;;;;;;;1.80;99.90;;;-0.10;95.64;100225.06;2569156;30;136711;-39
2022/04/01 08:29:27;;;;;;;;;;;1.70;99.90;;;-0.09;96.21;100228.59;2567231;30;137939;-39
2022/04/01 08:31:55;;;;;;;;;;;1.70;99.90;;;-0.04;96.65;100231.63;2567762;30;139102;-39
2022/04/01 08:34:22;;;;;;;;;;;1.70;99.90;;;-0.05;95.94;100232.63;2568739;30;137960;-40
2022/04/01 08:36:50;;;;;;;;;;;1.70;99.90;;;-0.03;96.70;100226.13;2567903;30;139239;-40
2022/04/01 08:39:17;;;;;;;;;;;1.80;99.90;;;-0.02;96.36;100243.03;2568236;30;137066;-40
2022/04/01 08:41:45;;;;;;;;;;;1.80;99.90;;;-0.02;96.33;100241.22;2567585;30;139037;-40
2022/04/01 08:44:14;;;;;;;;;;;1.80;99.90;;;0.03;97.77;100248.78;2566164;30;137233;-40
2022/04/01 08:46:41;;;;;;;;;;;1.80;99.90;;;0.04;95.88;100255.00;2568462;30;138212;-40
2022/04/01 08:49:09;;;;;;;;;;;1.80;99.90;;;0.01;93.91;100258.00;2568457;30;136748;-40
2022/04/01 08:51:36;;;;;;;;;;;1.80;99.90;;;-0.05;93.20;100260.31;2567692;30;139574;-39
2022/04/01 08:54:04;;;;;;;;;;;1.80;99.90;;;-0.06;95.32;100252.41;2564556;30;137500;-40
2022/04/01 08:56:31;;;;;;;;;;;1.80;99.90;;;0.01;95.20;100258.00;2568907;30;137091;-40
2022/04/01 08:58:59;;;;;;;;;;;1.80;99.90;;;0.03;94.77;100267.56;2569246;30;136707;-40
2022/04/01 09:01:44;;;;;;;;;;;1.80;99.90;;;0.04;94.01;100273.75;2568349;30;139187;-40
2022/04/01 09:04:22;;;;;;;;;;;1.80;99.90;;;0.12;96.07;100268.44;2569708;30;137365;-40
2022/04/01 09:06:51;;;;;;;;;;;1.90;99.90;;;0.13;94.78;100280.88;2568157;30;138991;-39
2022/04/01 09:09:26;;;;;;;;;;;1.90;99.90;;;0.07;92.51;100284.19;2568637;30;136684;-40
2022/04/01 09:12:12;;;;;;;;;;;1.90;99.90;;;0.12;93.23;100282.72;2568742;30;138157;-40
2022/04/01 09:14:41;;;;;;;;;;;1.90;99.90;;;0.08;92.56;100277.81;2568914;30;137938;-39
2022/04/01 09:17:11;;;;;;;;;;;1.90;99.90;;;0.06;91.83;100283.34;2568889;30;139441;-40
2022/04/01 09:19:41;;;;;;;;;;;1.90;99.90;;;0.10;93.23;100287.41;2568842;30;137940;-40
2022/04/01 09:22:21;;;;;;;;;;;1.90;99.90;;;0.09;92.34;100296.44;2568182;30;137206;-40
2022/04/01 09:24:54;;;;;;;;;;;1.90;99.90;;;0.10;92.59;100284.72;2566211;30;137232;-40
2022/04/01 09:27:51;;;;;;;;;;;1.90;99.90;;;0.17;91.48;100301.03;2568073;30;137034;-40
2022/04/01 09:30:30;;;;;;;;;;;1.90;99.90;;;0.16;90.86;100294.00;2569707;30;137026;-40
2022/04/01 09:33:00;;;;;;;;;;;1.90;99.90;;;0.18;92.35;100304.53;2568848;30;138228;-40
2022/04/01 09:35:33;;;;;;;;;;;2.00;99.90;;;0.22;91.78;100300.53;2568202;30;137380;-40
2022/04/01 09:38:04;;;;;;;;;;;2.00;99.90;;;0.29;92.49;100309.66;2568978;30;137808;-40
2022/04/01 09:40:35;;;;;;;;;;;2.00;99.90;;;0.28;92.25;100314.19;2567225;30;136793;-40
2022/04/01 09:43:08;;;;;;;;;;;2.00;99.90;;;0.24;90.87;100303.91;2568776;30;137800;-40
2022/04/01 09:45:36;;;;;;;;;;;2.00;99.90;;;0.23;89.95;100308.44;2569776;30;136873;-40
2022/04/01 09:48:09;;;;;;;;;;;2.00;99.90;;;0.20;90.23;100307.91;2568423;30;137080;-39
2022/04/01 09:50:39;;;;;;;;;;;2.00;99.90;;;0.32;91.74;100312.03;2568676;30;136790;-40
2022/04/01 09:53:16;;;;;;;;;;;2.00;99.90;;;0.35;90.67;100311.72;2566942;30;139393;-39
2022/04/01 09:55:46;;;;;;;;;;;2.10;99.90;;;0.34;89.38;100315.41;2568448;30;137754;-40
2022/04/01 09:58:17;;;;;;;;;;;2.10;99.90;;;0.31;88.75;100314.88;2569155;30;138526;-40
2022/04/01 10:00:46;;;;;;;;;;;2.10;99.90;;;0.22;88.98;100300.53;2568908;30;137992;-39
2022/04/01 10:03:15;;;;;;;;;;;2.10;99.90;;;0.28;89.94;100326.78;2566910;30;137572;-39
2022/04/01 10:05:43;;;;;;;;;;;2.00;99.90;;;0.31;90.14;100331.81;2567374;30;137093;-39
2022/04/01 10:08:13;;;;;;;;;;;2.10;99.90;;;0.32;89.78;100330.81;2568414;30;138247;-39
2022/04/01 10:10:43;;;;;;;;;;;2.10;99.90;;;0.32;88.71;100327.28;2568348;30;136989;-40
2022/04/01 10:13:21;;;;;;;;;;;2.10;99.90;;;0.38;89.07;100326.66;2568459;30;137556;-40
2022/04/01 10:15:50;;;;;;;;;;;2.10;99.90;;;0.46;90.70;100333.91;2568605;30;136700;-40
2022/04/01 10:18:41;;;;;;;;;;;2.20;99.90;;;0.47;89.05;100339.13;2568129;30;138270;-40
2022/04/01 10:21:10;;;;;;;;;;;2.20;99.90;;;0.43;86.76;100337.78;2568544;30;136983;-40
2022/04/01 10:23:43;;;;;;;;;;;2.20;99.90;;;0.41;88.75;100337.91;2566996;30;138984;-39
2022/04/01 10:26:15;;;;;;;;;;;2.20;99.90;;;0.34;88.04;100326.13;2567700;30;137040;-40
2022/04/01 10:28:46;;;;;;;;;;;2.20;99.90;;;0.38;87.71;100332.88;2568920;30;138568;-40
2022/04/01 10:31:18;;;;;;;;;;;2.20;99.90;;;0.41;87.62;100339.78;2567449;30;137146;-40
2022/04/01 10:33:47;;;;;;;;;;;2.20;99.90;;;0.45;87.64;100343.81;2568962;30;137995;-40
2022/04/01 10:36:31;;;;;;;;;;;2.20;99.90;;;0.43;88.02;100345.81;2568965;30;137228;-40
2022/04/01 10:39:07;;;;;;;;;;;2.20;99.90;;;0.47;87.12;100351.69;2567722;30;139626;-40
2022/04/01 10:41:35;;;;;;;;;;;2.20;99.90;;;0.34;86.61;100344.06;2569122;30;136659;-40
2022/04/01 10:44:03;;;;;;;;;;;2.20;99.90;;;0.45;87.77;100353.69;2568806;30;138255;-40
2022/04/01 10:46:30;;;;;;;;;;;2.20;99.90;;;0.40;87.05;100351.50;2567272;30;138023;-39
2022/04/01 10:52:02;;;;;;;;;;;2.20;99.90;;;0.41;88.17;100358.56;2569081;30;137020;-40
2022/04/01 10:54:29;;;;;;;;;;;2.20;99.90;;;0.43;87.45;100357.38;2567802;30;138324;-40
2022/04/01 10:57:05;;;;;;;;;;;2.20;99.90;;;0.53;88.05;100361.78;2568808;30;137752;-40
2022/04/01 10:59:42;;;;;;;;;;;2.20;99.90;;;0.53;88.11;100364.47;2568129;30;139161;-40
2022/04/01 11:02:18;;;;;;;;;;;2.30;99.90;;;0.56;88.97;100369.56;2568251;30;137052;-40
2022/04/01 11:04:48;;;;;;;;;;;2.30;99.90;;;0.61;88.76;100369.06;2566876;30;138955;-40
2022/04/01 11:07:21;;;;;;;;;;;2.30;99.90;;;0.54;89.06;100358.97;2567914;30;136937;-40
2022/04/01 11:09:54;;;;;;;;;;;2.30;99.90;;;0.55;89.36;100365.19;2568691;30;138312;-40
2022/04/01 11:12:22;;;;;;;;;;;2.30;99.90;;;0.64;90.23;100363.38;2569296;30;136770;-40
2022/04/01 11:15:14;;;;;;;;;;;2.40;99.90;;;0.55;87.09;100373.25;2567996;30;138461;-39
2022/04/01 11:17:41;;;;;;;;;;;2.40;99.90;;;0.56;87.48;100367.72;2568396;30;136723;-40
2022/04/01 11:20:18;;;;;;;;;;;2.30;99.90;;;0.50;86.63;100367.50;2566990;30;139238;-40
2022/04/01 11:22:52;;;;;;;;;;;2.30;99.90;;;0.54;87.47;100368.88;2567906;30;136914;-39
2022/04/01 11:25:22;;;;;;;;;;;2.30;99.90;;;0.57;86.29;100369.38;2569207;30;138212;-40
2022/04/01 11:28:02;;;;;;;;;;;2.40;99.90;;;0.61;87.40;100366.38;2568112;30;138092;-40
2022/04/01 11:30:31;;;;;;;;;;;2.40;99.90;;;0.61;87.28;100371.75;2565306;30;138644;-39
2022/04/01 11:33:09;;;;;;;;;;;2.40;99.90;;;0.63;86.94;100381.34;2569117;30;136938;-40
2022/04/01 11:35:39;;;;;;;;;;;2.40;99.90;;;0.56;86.62;100388.34;2568232;30;138116;-40
2022/04/01 11:38:13;;;;;;;;;;;2.30;99.90;;;0.62;88.06;100376.97;2568514;30;136918;-40
2022/04/01 11:40:43;;;;;;;;;;;2.40;99.90;;;0.63;87.51;100381.34;2568355;30;139384;-40
2022/04/01 11:43:15;;;;;;;;;;;2.40;99.90;;;0.51;87.51;100377.22;2568986;30;136988;-40
2022/04/01 11:45:54;;;;;;;;;;;2.30;99.90;;;0.50;86.78;100379.09;2569148;30;137502;-40
2022/04/01 11:48:39;;;;;;;;;;;2.30;99.90;;;0.38;87.50;100389.22;2568559;30;137135;-40
2022/04/01 11:51:21;;;;;;;;;;;2.20;99.90;;;0.42;87.58;100393.28;2567709;30;138512;-40
2022/04/01 11:53:51;;;;;;;;;;;2.20;99.90;;;0.47;88.56;100391.97;2565869;30;137588;-39
2022/04/01 11:56:25;;;;;;;;;;;2.20;99.90;;;0.46;87.74;100401.03;2568553;30;137285;-40
2022/04/01 11:59:01;;;;;;;;;;;2.20;99.90;;;0.49;88.75;100398.03;2569230;30;137089;-40